Time;durP1;ratioP1;P1;durP2;ratioP2;P2;SDS_P1;SDS_P2;PMS_P1;PMS_P2;Temp;Humidity;BMP_temperature;BMP_pressure;BME280_temperature;BME280_humidity;BME280_pressure;Samples;Min_cycle;Max_cycle;Signal;HPM_P1;HPM_P2
2021/06/07 00:01:06;;;;;;;54.50;40.93;;;;;;;;;;5055820;28;20442;-75
2021/06/07 00:03:33;;;;;;;49.53;39.27;;;;;;;;;;5055799;28;20421;-74
2021/06/07 00:05:59;;;;;;;51.03;39.67;;;;;;;;;;5055694;28;20427;-73
2021/06/07 00:08:25;;;;;;;58.00;39.47;;;;;;;;;;5055483;28;20419;-73
2021/06/07 00:10:51;;;;;;;62.27;41.00;;;;;;;;;;5055541;28;20831;-75
2021/06/07 00:13:17;;;;;;;57.93;41.97;;;;;;;;;;5055399;28;20510;-72
2021/06/07 00:15:43;;;;;;;63.03;43.23;;;;;;;;;;5055508;28;20423;-74
2021/06/07 00:18:10;;;;;;;67.30;41.60;;;;;;;;;;5055080;28;20812;-76
2021/06/07 00:20:38;;;;;;;59.53;41.77;;;;;;;;;;5055391;28;20458;-76
2021/06/07 00:23:04;;;;;;;52.80;39.20;;;;;;;;;;5069235;28;20422;-75
2021/06/07 00:25:30;;;;;;;62.73;42.60;;;;;;;;;;5075704;28;20416;-74
2021/06/07 00:27:56;;;;;;;57.53;41.70;;;;;;;;;;5075746;28;20491;-76
2021/06/07 00:30:22;;;;;;;52.57;39.63;;;;;;;;;;5061328;28;20488;-76
2021/06/07 00:32:48;;;;;;;54.30;40.37;;;;;;;;;;5055579;28;20413;-73
2021/06/07 00:35:20;;;;;;;51.47;38.70;;;;;;;;;;5055351;28;20418;-74
2021/06/07 00:37:46;;;;;;;63.70;41.03;;;;;;;;;;5055095;28;20476;-73
2021/06/07 00:40:13;;;;;;;52.97;39.13;;;;;;;;;;5055025;28;20824;-75
2021/06/07 00:42:39;;;;;;;53.53;39.67;;;;;;;;;;5055201;28;20409;-74
2021/06/07 00:45:07;;;;;;;54.33;40.23;;;;;;;;;;5054912;28;20768;-76
2021/06/07 00:47:33;;;;;;;56.23;40.17;;;;;;;;;;5063091;28;20740;-74
2021/06/07 00:49:59;;;;;;;53.33;40.80;;;;;;;;;;5060290;28;20421;-76
2021/06/07 00:52:25;;;;;;;55.87;41.30;;;;;;;;;;5054766;28;20501;-75
2021/06/07 00:54:51;;;;;;;52.37;41.90;;;;;;;;;;5054643;28;20411;-75
2021/06/07 00:57:17;;;;;;;59.63;41.87;;;;;;;;;;5054822;28;20429;-74
2021/06/07 00:59:43;;;;;;;52.23;40.40;;;;;;;;;;5055578;28;20414;-75
2021/06/07 01:02:10;;;;;;;60.03;43.07;;;;;;;;;;5073749;28;20443;-74
2021/06/07 01:04:36;;;;;;;51.20;40.50;;;;;;;;;;5074494;28;20414;-75
2021/06/07 01:07:02;;;;;;;57.20;41.07;;;;;;;;;;5074614;28;20825;-75
2021/06/07 01:09:28;;;;;;;56.63;42.60;;;;;;;;;;5074376;28;20507;-76
2021/06/07 01:11:54;;;;;;;52.47;40.20;;;;;;;;;;5073419;28;20436;-75
2021/06/07 01:14:20;;;;;;;58.10;41.63;;;;;;;;;;5054242;28;20429;-74
2021/06/07 01:16:46;;;;;;;57.37;40.70;;;;;;;;;;5054275;28;20425;-74
2021/06/07 01:19:12;;;;;;;57.40;42.27;;;;;;;;;;5054372;28;20456;-75
2021/06/07 01:21:38;;;;;;;61.17;41.60;;;;;;;;;;5056586;28;20438;-74
2021/06/07 01:24:04;;;;;;;59.17;41.17;;;;;;;;;;5074305;28;20499;-74
2021/06/07 01:26:30;;;;;;;51.03;40.97;;;;;;;;;;5074393;28;20409;-75
2021/06/07 01:28:57;;;;;;;54.30;40.33;;;;;;;;;;5072052;28;20420;-74
2021/06/07 01:31:23;;;;;;;57.63;41.60;;;;;;;;;;5054091;28;20429;-73
2021/06/07 01:33:50;;;;;;;58.50;42.77;;;;;;;;;;5054107;28;20743;-74
2021/06/07 01:36:16;;;;;;;60.63;42.50;;;;;;;;;;5053994;28;20972;-74
2021/06/07 01:38:43;;;;;;;68.27;41.77;;;;;;;;;;5054054;28;20461;-76
2021/06/07 01:41:10;;;;;;;58.50;43.57;;;;;;;;;;5053806;28;20437;-74
2021/06/07 01:43:37;;;;;;;63.60;43.73;;;;;;;;;;5054171;28;20510;-73
2021/06/07 01:46:03;;;;;;;67.57;42.80;;;;;;;;;;5053895;28;20894;-75
2021/06/07 01:48:30;;;;;;;63.70;45.23;;;;;;;;;;5066562;28;20421;-76
2021/06/07 01:50:57;;;;;;;69.30;44.27;;;;;;;;;;5053676;28;20434;-74
2021/06/07 01:53:24;;;;;;;70.00;45.87;;;;;;;;;;5053731;28;20435;-76
2021/06/07 01:55:52;;;;;;;71.43;46.10;;;;;;;;;;5053702;28;20412;-75
2021/06/07 01:58:18;;;;;;;75.53;44.33;;;;;;;;;;5053642;28;20492;-76
2021/06/07 02:01:07;;;;;;;65.50;43.70;;;;;;;;;;5053562;28;20433;-78
2021/06/07 02:03:34;;;;;;;74.43;45.23;;;;;;;;;;5053051;28;20792;-73
2021/06/07 02:06:01;;;;;;;71.87;44.70;;;;;;;;;;5053415;28;20780;-76
2021/06/07 02:08:31;;;;;;;75.70;46.10;;;;;;;;;;5053375;28;20511;-76
2021/06/07 02:10:59;;;;;;;69.30;46.00;;;;;;;;;;5053277;28;20437;-74
2021/06/07 02:13:25;;;;;;;84.60;47.20;;;;;;;;;;5052942;28;20421;-77
2021/06/07 02:15:55;;;;;;;70.53;47.07;;;;;;;;;;5053373;28;20500;-75
2021/06/07 02:18:21;;;;;;;74.30;48.30;;;;;;;;;;5053055;28;20454;-73
2021/06/07 02:20:47;;;;;;;71.57;46.53;;;;;;;;;;5053099;28;20528;-75
2021/06/07 02:23:13;;;;;;;73.87;45.20;;;;;;;;;;5068217;28;20423;-73
2021/06/07 02:25:40;;;;;;;81.53;48.10;;;;;;;;;;5073355;28;20409;-74
2021/06/07 02:28:09;;;;;;;69.10;46.37;;;;;;;;;;5073027;28;20416;-77
2021/06/07 02:30:35;;;;;;;71.30;46.80;;;;;;;;;;5057429;28;20444;-75
2021/06/07 02:33:02;;;;;;;72.93;46.20;;;;;;;;;;5053109;28;20430;-74
2021/06/07 02:35:28;;;;;;;78.27;48.00;;;;;;;;;;5052898;28;20419;-76
2021/06/07 02:37:55;;;;;;;78.80;46.27;;;;;;;;;;5052989;28;20460;-75
2021/06/07 02:40:24;;;;;;;78.10;47.77;;;;;;;;;;5052811;28;20444;-75
2021/06/07 02:42:50;;;;;;;76.70;47.10;;;;;;;;;;5052986;28;20415;-71
2021/06/07 02:45:17;;;;;;;75.00;46.70;;;;;;;;;;5053159;28;20531;-73
2021/06/07 02:47:44;;;;;;;81.20;46.97;;;;;;;;;;5061717;28;20417;-76
2021/06/07 02:50:11;;;;;;;79.50;46.80;;;;;;;;;;5056221;28;20423;-73
2021/06/07 02:52:47;;;;;;;74.47;45.10;;;;;;;;;;5052749;28;20423;-76
2021/06/07 02:55:13;;;;;;;81.43;47.73;;;;;;;;;;5053233;28;20786;-74
2021/06/07 02:57:39;;;;;;;86.97;46.80;;;;;;;;;;5052578;28;20861;-76
2021/06/07 03:00:06;;;;;;;87.63;47.77;;;;;;;;;;5052985;28;20451;-78
2021/06/07 03:02:32;;;;;;;85.70;47.20;;;;;;;;;;5052887;28;20423;-75
2021/06/07 03:04:58;;;;;;;84.13;47.23;;;;;;;;;;5052585;28;20413;-73
2021/06/07 03:07:24;;;;;;;87.33;49.03;;;;;;;;;;5052576;28;20429;-76
2021/06/07 03:09:50;;;;;;;77.83;48.80;;;;;;;;;;5052678;28;20461;-76
2021/06/07 03:12:16;;;;;;;87.70;46.90;;;;;;;;;;5051242;28;20441;-74
2021/06/07 03:14:43;;;;;;;92.73;47.40;;;;;;;;;;5052754;28;20452;-75
2021/06/07 03:17:09;;;;;;;76.30;46.40;;;;;;;;;;5052637;28;20417;-73
2021/06/07 03:19:35;;;;;;;82.33;46.03;;;;;;;;;;5052463;28;20817;-75
2021/06/07 03:22:01;;;;;;;75.60;46.93;;;;;;;;;;5057980;28;20435;-77
2021/06/07 03:24:27;;;;;;;76.87;46.20;;;;;;;;;;5074022;28;20413;-76
2021/06/07 03:26:53;;;;;;;84.47;48.77;;;;;;;;;;5076484;28;20423;-73
2021/06/07 03:29:19;;;;;;;80.23;47.60;;;;;;;;;;5070833;28;20416;-73
2021/06/07 03:31:45;;;;;;;79.33;46.27;;;;;;;;;;5055953;28;20923;-76
2021/06/07 03:34:11;;;;;;;88.00;47.00;;;;;;;;;;5056336;28;20444;-74
2021/06/07 03:36:37;;;;;;;87.67;52.00;;;;;;;;;;5056485;28;20912;-78
2021/06/07 03:39:04;;;;;;;80.37;46.47;;;;;;;;;;5055910;28;20465;-73
2021/06/07 03:41:30;;;;;;;81.17;45.27;;;;;;;;;;5056228;28;20431;-73
2021/06/07 03:43:56;;;;;;;74.80;46.40;;;;;;;;;;5055736;28;20454;-75
2021/06/07 03:46:22;;;;;;;78.77;44.00;;;;;;;;;;5056162;28;20462;-75
2021/06/07 03:48:48;;;;;;;84.10;47.00;;;;;;;;;;5068045;28;20465;-75
2021/06/07 03:51:14;;;;;;;77.83;46.17;;;;;;;;;;5056297;28;20435;-76
2021/06/07 03:53:40;;;;;;;82.47;47.40;;;;;;;;;;5055807;28;20771;-76
2021/06/07 03:56:06;;;;;;;67.93;43.60;;;;;;;;;;5055946;28;20444;-75
2021/06/07 03:58:32;;;;;;;76.10;47.60;;;;;;;;;;5055762;28;20461;-76
2021/06/07 04:00:59;;;;;;;72.47;44.83;;;;;;;;;;5055893;28;20596;-77
2021/06/07 04:03:25;;;;;;;64.40;45.47;;;;;;;;;;5055554;28;20464;-73
2021/06/07 04:05:51;;;;;;;60.30;40.93;;;;;;;;;;5055638;28;20433;-74
2021/06/07 04:08:17;;;;;;;65.93;43.73;;;;;;;;;;5055363;28;20423;-75
2021/06/07 04:10:46;;;;;;;64.53;41.60;;;;;;;;;;5055650;28;20488;-75
2021/06/07 04:13:12;;;;;;;71.00;43.77;;;;;;;;;;5054000;28;20835;-73
2021/06/07 04:15:38;;;;;;;66.70;44.03;;;;;;;;;;5055922;28;20421;-72
2021/06/07 04:18:04;;;;;;;65.70;43.13;;;;;;;;;;5055254;28;20500;-73
2021/06/07 04:20:31;;;;;;;65.47;39.87;;;;;;;;;;5055602;28;20437;-74
2021/06/07 04:22:58;;;;;;;64.87;42.03;;;;;;;;;;5061958;28;20413;-75
2021/06/07 04:25:25;;;;;;;67.73;43.00;;;;;;;;;;5055440;28;20984;-74
2021/06/07 04:27:52;;;;;;;59.80;40.70;;;;;;;;;;5058721;28;20411;-75
2021/06/07 04:30:19;;;;;;;64.80;43.20;;;;;;;;;;5060687;28;20827;-76
2021/06/07 04:32:46;;;;;;;69.10;42.93;;;;;;;;;;5055346;28;20786;-76
2021/06/07 04:35:13;;;;;;;72.73;47.67;;;;;;;;;;5054454;28;20470;-78
2021/06/07 04:37:49;;;;;;;65.37;43.77;;;;;;;;;;5055105;28;20457;-76
2021/06/07 04:40:16;;;;;;;65.53;42.80;;;;;;;;;;5054954;28;20769;-74
2021/06/07 04:42:42;;;;;;;56.90;41.70;;;;;;;;;;5054979;28;20408;-74
2021/06/07 04:45:08;;;;;;;59.20;41.87;;;;;;;;;;5054761;28;20417;-76
2021/06/07 04:47:34;;;;;;;56.17;41.30;;;;;;;;;;5062663;28;20408;-76
2021/06/07 04:50:01;;;;;;;64.80;42.00;;;;;;;;;;5058702;28;20420;-77
2021/06/07 04:52:27;;;;;;;57.33;41.73;;;;;;;;;;5055185;28;20412;-74
2021/06/07 04:54:53;;;;;;;58.30;40.40;;;;;;;;;;5054871;28;20421;-76
2021/06/07 04:57:19;;;;;;;57.83;39.07;;;;;;;;;;5053502;28;20509;-76
2021/06/07 04:59:45;;;;;;;58.37;41.17;;;;;;;;;;5054495;28;20428;-76
2021/06/07 05:02:12;;;;;;;56.70;41.53;;;;;;;;;;5054930;28;20423;-77
2021/06/07 05:04:38;;;;;;;62.77;41.67;;;;;;;;;;5054520;28;20419;-76
2021/06/07 05:07:04;;;;;;;62.00;40.93;;;;;;;;;;5054687;28;20431;-77
2021/06/07 05:09:30;;;;;;;45.93;35.70;;;;;;;;;;5054262;28;20427;-74
2021/06/07 05:11:56;;;;;;;50.33;37.90;;;;;;;;;;5054366;28;20435;-74
2021/06/07 05:14:22;;;;;;;49.47;34.80;;;;;;;;;;5054214;28;20761;-76
2021/06/07 05:16:48;;;;;;;54.57;38.87;;;;;;;;;;5054677;28;20413;-77
2021/06/07 05:19:14;;;;;;;48.70;36.73;;;;;;;;;;5054166;28;20501;-76
2021/06/07 05:21:40;;;;;;;54.33;39.47;;;;;;;;;;5056880;28;20932;-73
2021/06/07 05:24:07;;;;;;;53.47;39.40;;;;;;;;;;5057988;28;20420;-75
2021/06/07 05:26:33;;;;;;;56.67;40.80;;;;;;;;;;5054164;28;20750;-77
2021/06/07 05:28:59;;;;;;;56.63;41.30;;;;;;;;;;5062872;28;20451;-73
2021/06/07 05:31:25;;;;;;;56.20;40.13;;;;;;;;;;5054060;28;20423;-74
2021/06/07 05:33:51;;;;;;;58.67;40.70;;;;;;;;;;5053912;28;20514;-74
2021/06/07 05:36:18;;;;;;;56.77;41.80;;;;;;;;;;5054238;28;20451;-76
2021/06/07 05:38:44;;;;;;;57.03;39.37;;;;;;;;;;5053494;28;20449;-74
2021/06/07 05:41:10;;;;;;;64.17;40.80;;;;;;;;;;5053987;28;20436;-77
2021/06/07 05:43:36;;;;;;;56.40;39.60;;;;;;;;;;5053636;28;20953;-75
2021/06/07 05:46:02;;;;;;;61.87;40.00;;;;;;;;;;5053728;28;20937;-75
2021/06/07 05:48:28;;;;;;;60.80;41.20;;;;;;;;;;5053024;28;20878;-75
2021/06/07 05:50:54;;;;;;;59.30;40.30;;;;;;;;;;5053788;28;20440;-76
2021/06/07 05:53:21;;;;;;;60.10;41.87;;;;;;;;;;5053583;28;20420;-75
2021/06/07 05:55:47;;;;;;;59.60;41.90;;;;;;;;;;5054014;28;20426;-76
2021/06/07 05:58:18;;;;;;;50.63;37.50;;;;;;;;;;5053366;28;20961;-72
2021/06/07 06:00:45;;;;;;;54.13;38.20;;;;;;;;;;5053458;28;20433;-75
2021/06/07 06:03:11;;;;;;;51.87;37.73;;;;;;;;;;5053534;28;20449;-77
2021/06/07 06:05:38;;;;;;;45.90;36.60;;;;;;;;;;5053523;28;20766;-77
2021/06/07 06:08:05;;;;;;;50.50;37.77;;;;;;;;;;5053460;28;20413;-77
2021/06/07 06:10:31;;;;;;;47.63;36.00;;;;;;;;;;5053591;28;20448;-77
2021/06/07 06:12:58;;;;;;;45.63;36.70;;;;;;;;;;5053027;28;20414;-77
2021/06/07 06:15:25;;;;;;;48.13;36.27;;;;;;;;;;5053476;28;20421;-76
2021/06/07 06:17:54;;;;;;;43.97;35.13;;;;;;;;;;5053726;28;20469;-74
2021/06/07 06:20:20;;;;;;;47.00;35.63;;;;;;;;;;5053139;28;20451;-72
2021/06/07 06:22:47;;;;;;;45.17;37.77;;;;;;;;;;5058276;28;20433;-74
2021/06/07 06:25:14;;;;;;;47.07;37.93;;;;;;;;;;5049292;28;20522;-78
2021/06/07 06:27:40;;;;;;;47.73;37.13;;;;;;;;;;5054709;28;20456;-74
2021/06/07 06:30:07;;;;;;;46.43;36.70;;;;;;;;;;5055073;28;20946;-75
2021/06/07 06:32:34;;;;;;;43.90;34.80;;;;;;;;;;5049346;28;20427;-77
2021/06/07 06:35:00;;;;;;;47.53;35.60;;;;;;;;;;5056490;28;20788;-77
2021/06/07 06:37:26;;;;;;;44.17;34.30;;;;;;;;;;5056102;28;20518;-78
2021/06/07 06:39:52;;;;;;;43.97;33.80;;;;;;;;;;5072064;28;20490;-77
2021/06/07 06:42:18;;;;;;;49.40;37.50;;;;;;;;;;5053198;28;21149;-75
2021/06/07 06:44:44;;;;;;;44.10;35.73;;;;;;;;;;5049055;28;20494;-76
2021/06/07 06:47:10;;;;;;;46.70;34.13;;;;;;;;;;5048961;28;20414;-74
2021/06/07 06:49:36;;;;;;;46.40;36.57;;;;;;;;;;5048897;28;20428;-75
2021/06/07 06:52:02;;;;;;;44.70;36.67;;;;;;;;;;5048948;28;20967;-75
2021/06/07 06:54:28;;;;;;;42.23;33.47;;;;;;;;;;5048870;28;20519;-74
2021/06/07 06:56:54;;;;;;;43.23;35.10;;;;;;;;;;5047708;28;20439;-74
2021/06/07 06:59:21;;;;;;;38.93;33.57;;;;;;;;;;5050245;28;20461;-74
2021/06/07 07:01:47;;;;;;;41.23;34.13;;;;;;;;;;5053022;28;21092;-73
2021/06/07 07:04:13;;;;;;;39.23;32.80;;;;;;;;;;5052931;28;20411;-75
2021/06/07 07:06:40;;;;;;;37.40;32.30;;;;;;;;;;5055954;28;20433;-76
2021/06/07 07:09:06;;;;;;;40.27;33.60;;;;;;;;;;5063000;28;20426;-75
2021/06/07 07:11:33;;;;;;;38.73;33.53;;;;;;;;;;5052840;28;20495;-77
2021/06/07 07:13:59;;;;;;;37.33;32.63;;;;;;;;;;5055962;28;20414;-74
2021/06/07 07:16:25;;;;;;;40.87;34.03;;;;;;;;;;5058942;28;20414;-73
2021/06/07 07:18:51;;;;;;;40.63;33.20;;;;;;;;;;5052689;28;20565;-77
2021/06/07 07:21:17;;;;;;;43.67;35.47;;;;;;;;;;5052943;28;20438;-74
2021/06/07 07:23:43;;;;;;;43.00;35.30;;;;;;;;;;5066992;28;20421;-76
2021/06/07 07:26:09;;;;;;;39.73;32.97;;;;;;;;;;5072592;28;20414;-74
2021/06/07 07:28:35;;;;;;;42.50;33.93;;;;;;;;;;5072668;28;20429;-76
2021/06/07 07:31:01;;;;;;;39.73;33.00;;;;;;;;;;5055809;28;20875;-75
2021/06/07 07:33:27;;;;;;;41.87;37.40;;;;;;;;;;5052351;28;20434;-76
2021/06/07 07:35:53;;;;;;;38.63;33.50;;;;;;;;;;5052802;28;20507;-74
2021/06/07 07:38:19;;;;;;;39.73;34.87;;;;;;;;;;5052388;28;21269;-74
2021/06/07 07:40:46;;;;;;;37.00;32.97;;;;;;;;;;5052313;28;20553;-76
2021/06/07 07:43:12;;;;;;;37.50;31.73;;;;;;;;;;5052473;28;20411;-74
2021/06/07 07:45:39;;;;;;;35.57;31.77;;;;;;;;;;5052337;28;20415;-76
2021/06/07 07:48:07;;;;;;;31.97;28.57;;;;;;;;;;5052120;28;20599;-76
2021/06/07 07:50:34;;;;;;;34.47;30.80;;;;;;;;;;5052191;28;20974;-78
2021/06/07 07:53:00;;;;;;;33.37;29.93;;;;;;;;;;5057115;28;21122;-75
2021/06/07 07:55:31;;;;;;;34.23;30.63;;;;;;;;;;5054982;28;20434;-76
2021/06/07 07:57:58;;;;;;;33.93;30.50;;;;;;;;;;5052137;28;20458;-76
2021/06/07 08:00:26;;;;;;;32.23;28.93;;;;;;;;;;5062908;28;20439;-74
2021/06/07 08:02:53;;;;;;;33.80;30.23;;;;;;;;;;5051835;28;20807;-76
2021/06/07 08:05:19;;;;;;;33.33;29.90;;;;;;;;;;5052065;28;20408;-78
2021/06/07 08:07:46;;;;;;;36.03;32.30;;;;;;;;;;5051947;28;20431;-75
2021/06/07 08:10:12;;;;;;;34.10;30.70;;;;;;;;;;5051679;28;20412;-74
2021/06/07 08:12:38;;;;;;;33.63;30.10;;;;;;;;;;5052038;28;20411;-73
2021/06/07 08:15:05;;;;;;;34.00;30.50;;;;;;;;;;5062119;28;20472;-76
2021/06/07 08:17:31;;;;;;;34.90;31.30;;;;;;;;;;5063954;28;20428;-77
2021/06/07 08:19:57;;;;;;;37.63;33.73;;;;;;;;;;5051680;28;20415;-78
2021/06/07 08:22:23;;;;;;;37.83;33.90;;;;;;;;;;5051597;28;20431;-75
2021/06/07 08:24:49;;;;;;;40.33;36.23;;;;;;;;;;5052039;28;20510;-78
2021/06/07 08:27:15;;;;;;;40.70;36.50;;;;;;;;;;5051611;28;20463;-77
2021/06/07 08:29:41;;;;;;;40.17;36.07;;;;;;;;;;5064113;28;20430;-78
2021/06/07 08:32:08;;;;;;;40.87;36.73;;;;;;;;;;5051215;28;20443;-75
2021/06/07 08:34:34;;;;;;;40.17;35.83;;;;;;;;;;5051574;28;21132;-75
2021/06/07 08:37:00;;;;;;;49.30;44.00;;;;;;;;;;5051880;28;20452;-73
2021/06/07 08:39:27;;;;;;;46.00;41.20;;;;;;;;;;5051047;28;20884;-73
2021/06/07 08:41:53;;;;;;;43.33;38.80;;;;;;;;;;5051075;28;20477;-75
2021/06/07 08:44:19;;;;;;;43.00;38.60;;;;;;;;;;5050690;28;20514;-76
2021/06/07 08:46:48;;;;;;;49.33;44.10;;;;;;;;;;5051344;28;20461;-79
2021/06/07 08:49:14;;;;;;;48.93;42.87;;;;;;;;;;5051347;28;20797;-76
2021/06/07 08:51:40;;;;;;;50.43;44.93;;;;;;;;;;5051443;28;20435;-76
2021/06/07 08:54:07;;;;;;;51.70;46.40;;;;;;;;;;5051031;28;20926;-75
2021/06/07 08:56:33;;;;;;;47.90;43.00;;;;;;;;;;5064049;28;20413;-79
2021/06/07 08:58:59;;;;;;;46.47;41.37;;;;;;;;;;5051042;28;20464;-76
2021/06/07 09:01:25;;;;;;;49.10;44.10;;;;;;;;;;5051362;28;20522;-77
2021/06/07 09:03:51;;;;;;;47.63;42.83;;;;;;;;;;5067824;28;20417;-76
2021/06/07 09:06:24;;;;;;;49.67;44.57;;;;;;;;;;5058241;28;20435;-78
2021/06/07 09:08:50;;;;;;;51.77;46.47;;;;;;;;;;5054089;28;20982;-76
2021/06/07 09:11:17;;;;;;;46.67;41.63;;;;;;;;;;5050897;28;20531;-77
2021/06/07 09:13:44;;;;;;;47.07;42.27;;;;;;;;;;5050469;28;20902;-74
2021/06/07 09:16:10;;;;;;;49.53;44.63;;;;;;;;;;5069891;28;20429;-77
2021/06/07 09:18:38;;;;;;;45.37;40.70;;;;;;;;;;5062505;28;20469;-73
2021/06/07 09:21:12;;;;;;;45.30;40.70;;;;;;;;;;5054019;28;20449;-77
2021/06/07 09:23:38;;;;;;;46.13;41.67;;;;;;;;;;5053005;28;20419;-77
2021/06/07 09:26:04;;;;;;;47.47;43.00;;;;;;;;;;5063654;28;20418;-76
2021/06/07 09:28:30;;;;;;;46.00;41.60;;;;;;;;;;5050506;28;20410;-76
2021/06/07 09:31:01;;;;;;;43.80;39.70;;;;;;;;;;5050388;28;20439;-75
2021/06/07 09:33:29;;;;;;;49.67;44.87;;;;;;;;;;5050207;28;20915;-77
2021/06/07 09:36:09;;;;;;;46.53;42.33;;;;;;;;;;5050325;28;20450;-79
2021/06/07 09:38:50;;;;;;;45.50;41.23;;;;;;;;;;5050132;28;20467;-80
2021/06/07 09:41:16;;;;;;;43.40;39.20;;;;;;;;;;5050698;28;20431;-74
2021/06/07 09:43:48;;;;;;;43.67;39.37;;;;;;;;;;5049932;28;20438;-76
2021/06/07 09:46:14;;;;;;;42.30;38.20;;;;;;;;;;5050301;28;20876;-74
2021/06/07 09:48:40;;;;;;;40.27;36.47;;;;;;;;;;5049820;28;20492;-77
2021/06/07 09:51:06;;;;;;;35.67;32.17;;;;;;;;;;5049919;28;20445;-76
2021/06/07 09:53:39;;;;;;;34.03;30.77;;;;;;;;;;5056361;28;20425;-75
2021/06/07 09:56:05;;;;;;;32.30;29.00;;;;;;;;;;5058859;28;20646;-75
2021/06/07 09:58:32;;;;;;;30.17;27.27;;;;;;;;;;5053548;28;20508;-76
2021/06/07 10:00:59;;;;;;;28.90;26.23;;;;;;;;;;5049745;28;20432;-74
2021/06/07 10:03:26;;;;;;;28.13;25.47;;;;;;;;;;5049378;28;20963;-77
2021/06/07 10:05:56;;;;;;;29.40;26.70;;;;;;;;;;5049488;28;20957;-73
2021/06/07 10:08:23;;;;;;;31.70;28.60;;;;;;;;;;5052748;28;20414;-73
2021/06/07 10:10:49;;;;;;;32.27;29.30;;;;;;;;;;5059912;28;20481;-76
2021/06/07 10:13:15;;;;;;;29.77;27.07;;;;;;;;;;5049319;28;20423;-77
2021/06/07 10:15:43;;;;;;;29.47;26.70;;;;;;;;;;5065291;28;20919;-77
2021/06/07 10:18:11;;;;;;;31.57;28.37;;;;;;;;;;5067440;28;20502;-78
2021/06/07 10:20:50;;;;;;;29.70;26.90;;;;;;;;;;5069412;28;20443;-76
2021/06/07 10:23:17;;;;;;;29.27;26.37;;;;;;;;;;5053642;28;20922;-75
2021/06/07 10:25:44;;;;;;;29.17;26.30;;;;;;;;;;5049599;28;20410;-76
2021/06/07 10:28:10;;;;;;;29.47;26.77;;;;;;;;;;5050257;28;20447;-75
2021/06/07 10:30:41;;;;;;;30.63;27.60;;;;;;;;;;5049434;28;20460;-76
2021/06/07 10:33:26;;;;;;;30.93;28.07;;;;;;;;;;5049267;28;20418;-78
2021/06/07 10:35:53;;;;;;;28.53;25.83;;;;;;;;;;5049482;28;20432;-76
2021/06/07 10:38:29;;;;;;;31.33;28.30;;;;;;;;;;5049231;28;20474;-73
2021/06/07 10:41:14;;;;;;;27.60;24.90;;;;;;;;;;5049131;28;20433;-77
2021/06/07 10:43:44;;;;;;;25.70;23.30;;;;;;;;;;5049151;28;20761;-74
2021/06/07 10:46:20;;;;;;;26.97;24.57;;;;;;;;;;5049205;28;20419;-75
2021/06/07 10:48:50;;;;;;;28.13;25.53;;;;;;;;;;5049060;28;20425;-75
2021/06/07 10:51:16;;;;;;;28.83;26.13;;;;;;;;;;5049471;28;21105;-75
2021/06/07 10:53:42;;;;;;;28.00;25.30;;;;;;;;;;5050247;28;20442;-74
2021/06/07 10:56:09;;;;;;;26.17;23.60;;;;;;;;;;5069013;28;20425;-76
2021/06/07 10:58:35;;;;;;;25.10;22.80;;;;;;;;;;5068782;28;20926;-74
2021/06/07 11:01:02;;;;;;;25.83;23.60;;;;;;;;;;5069177;28;20430;-76
2021/06/07 11:03:29;;;;;;;26.40;23.80;;;;;;;;;;5068936;28;20418;-74
2021/06/07 11:05:59;;;;;;;25.73;23.43;;;;;;;;;;5068773;28;20492;-76
2021/06/07 11:08:29;;;;;;;24.33;22.03;;;;;;;;;;5068813;28;20445;-77
2021/06/07 11:11:00;;;;;;;26.57;24.30;;;;;;;;;;5069118;28;20545;-79
2021/06/07 11:13:30;;;;;;;26.93;24.63;;;;;;;;;;5055020;28;20911;-78
2021/06/07 11:15:57;;;;;;;26.50;24.10;;;;;;;;;;5063252;28;20423;-75
2021/06/07 11:18:26;;;;;;;25.30;23.10;;;;;;;;;;5049722;28;20461;-78
2021/06/07 11:20:54;;;;;;;25.53;23.23;;;;;;;;;;5049158;28;20551;-79
2021/06/07 11:23:29;;;;;;;23.40;21.30;;;;;;;;;;5048786;28;20464;-77
2021/06/07 11:25:56;;;;;;;22.50;20.60;;;;;;;;;;5048993;28;20886;-77
2021/06/07 11:28:45;;;;;;;23.80;21.90;;;;;;;;;;5056260;28;20414;-78
2021/06/07 11:31:20;;;;;;;22.00;20.00;;;;;;;;;;5054715;28;20462;-74
2021/06/07 11:33:54;;;;;;;21.60;19.90;;;;;;;;;;5068513;28;20422;-75
2021/06/07 11:36:39;;;;;;;20.23;18.80;;;;;;;;;;5068858;28;20775;-75
2021/06/07 11:39:10;;;;;;;19.77;18.27;;;;;;;;;;5067114;28;20978;-72
2021/06/07 11:41:43;;;;;;;22.60;20.80;;;;;;;;;;5067048;28;20537;-72
2021/06/07 11:44:10;;;;;;;23.10;21.20;;;;;;;;;;5049294;28;20977;-74
2021/06/07 11:46:39;;;;;;;23.40;21.70;;;;;;;;;;5052247;28;20504;-76
2021/06/07 11:49:11;;;;;;;23.40;21.53;;;;;;;;;;5052234;28;20419;-73
2021/06/07 11:51:38;;;;;;;23.60;21.60;;;;;;;;;;5052707;28;20439;-74
2021/06/07 11:54:27;;;;;;;26.60;24.40;;;;;;;;;;5051920;28;20423;-74
2021/06/07 11:57:00;;;;;;;24.43;22.53;;;;;;;;;;5059794;28;20427;-74
2021/06/07 11:59:30;;;;;;;24.23;22.20;;;;;;;;;;5053007;28;20469;-75
2021/06/07 12:01:57;;;;;;;27.83;25.53;;;;;;;;;;5062778;28;20538;-74
2021/06/07 12:04:27;;;;;;;26.87;24.53;;;;;;;;;;5052084;28;20456;-75
2021/06/07 12:07:00;;;;;;;29.60;26.50;;;;;;;;;;5052057;28;20439;-75
2021/06/07 12:09:27;;;;;;;28.53;25.93;;;;;;;;;;5052050;28;20502;-76
2021/06/07 12:11:53;;;;;;;27.90;25.40;;;;;;;;;;5051891;28;20534;-76
2021/06/07 12:14:32;;;;;;;27.17;24.70;;;;;;;;;;5060495;28;20421;-76
2021/06/07 12:17:08;;;;;;;27.60;24.97;;;;;;;;;;5059481;28;20476;-76
2021/06/07 12:19:40;;;;;;;25.80;23.20;;;;;;;;;;5051418;28;20494;-73
2021/06/07 12:22:07;;;;;;;28.23;25.63;;;;;;;;;;5051641;28;20439;-74
2021/06/07 12:24:34;;;;;;;26.10;23.83;;;;;;;;;;5051484;28;20446;-74
2021/06/07 12:29:47;;;;;;;23.97;21.97;;;;;;;;;;5052400;28;20427;-74
2021/06/07 12:32:13;;;;;;;24.03;21.93;;;;;;;;;;5051589;28;21176;-74
2021/06/07 12:34:57;;;;;;;25.03;23.03;;;;;;;;;;5051433;28;20416;-75
2021/06/07 12:37:31;;;;;;;21.60;19.80;;;;;;;;;;5051581;28;20473;-72
2021/06/07 12:40:17;;;;;;;24.10;22.10;;;;;;;;;;5053001;28;20467;-72
2021/06/07 12:42:44;;;;;;;21.37;19.67;;;;;;;;;;5051517;28;20461;-74
2021/06/07 12:45:12;;;;;;;23.20;21.30;;;;;;;;;;5051230;28;20431;-74
2021/06/07 12:47:38;;;;;;;23.50;21.50;;;;;;;;;;5051073;28;20420;-74
2021/06/07 12:50:11;;;;;;;22.60;20.70;;;;;;;;;;5050940;28;20470;-74
2021/06/07 12:52:37;;;;;;;25.47;23.33;;;;;;;;;;5051159;28;20741;-75
2021/06/07 12:55:04;;;;;;;25.53;23.43;;;;;;;;;;5066421;28;20490;-74
2021/06/07 12:57:31;;;;;;;24.93;22.83;;;;;;;;;;5070674;28;20410;-77
2021/06/07 12:59:57;;;;;;;25.73;23.33;;;;;;;;;;5070881;28;20461;-76
2021/06/07 13:02:33;;;;;;;24.33;22.23;;;;;;;;;;5051511;28;20436;-75
2021/06/07 13:04:59;;;;;;;26.47;24.10;;;;;;;;;;5050780;28;20438;-75
2021/06/07 13:07:25;;;;;;;27.17;24.77;;;;;;;;;;5051186;28;20439;-75
2021/06/07 13:09:53;;;;;;;23.97;21.77;;;;;;;;;;5050768;28;20423;-75
2021/06/07 13:12:23;;;;;;;23.83;21.70;;;;;;;;;;5050985;28;20501;-74
2021/06/07 13:14:50;;;;;;;27.80;25.37;;;;;;;;;;5050781;28;20420;-76
2021/06/07 13:17:19;;;;;;;27.73;25.00;;;;;;;;;;5051880;28;20434;-73
2021/06/07 13:19:47;;;;;;;24.53;22.33;;;;;;;;;;5050517;28;20459;-73
2021/06/07 13:22:16;;;;;;;25.00;22.80;;;;;;;;;;5050505;28;20855;-75
2021/06/07 13:24:42;;;;;;;25.53;23.33;;;;;;;;;;5050405;28;21047;-75
2021/06/07 13:27:19;;;;;;;29.20;26.50;;;;;;;;;;5050456;28;20403;-73
2021/06/07 13:29:49;;;;;;;28.77;26.23;;;;;;;;;;5054810;28;20825;-74
2021/06/07 13:32:30;;;;;;;30.60;27.53;;;;;;;;;;5053762;28;20812;-76
2021/06/07 13:34:58;;;;;;;28.90;26.20;;;;;;;;;;5050283;28;20490;-75
2021/06/07 13:37:33;;;;;;;29.57;26.97;;;;;;;;;;5050371;28;20439;-75
2021/06/07 13:39:59;;;;;;;29.43;26.90;;;;;;;;;;5050105;28;20458;-74
2021/06/07 13:42:26;;;;;;;30.50;27.90;;;;;;;;;;5049937;28;20408;-72
2021/06/07 13:44:54;;;;;;;30.43;27.73;;;;;;;;;;5050135;28;20435;-75
2021/06/07 13:47:21;;;;;;;33.17;30.27;;;;;;;;;;5050192;28;20419;-74
2021/06/07 13:49:59;;;;;;;27.77;25.30;;;;;;;;;;5049993;28;20411;-74
2021/06/07 13:52:35;;;;;;;26.03;23.63;;;;;;;;;;5049982;28;20904;-74
2021/06/07 13:55:01;;;;;;;26.30;24.00;;;;;;;;;;5056706;28;20504;-77
2021/06/07 13:57:27;;;;;;;25.70;23.40;;;;;;;;;;5070019;28;20523;-73
2021/06/07 13:59:53;;;;;;;28.20;25.80;;;;;;;;;;5069765;28;20494;-74
2021/06/07 14:02:19;;;;;;;30.73;27.93;;;;;;;;;;5069669;28;20430;-75
2021/06/07 14:04:45;;;;;;;29.13;26.60;;;;;;;;;;5069604;28;20788;-75
2021/06/07 14:07:11;;;;;;;30.03;27.43;;;;;;;;;;5069535;28;20466;-71
2021/06/07 14:09:37;;;;;;;30.40;27.80;;;;;;;;;;5069486;28;20922;-74
2021/06/07 14:12:03;;;;;;;30.40;27.80;;;;;;;;;;5056793;28;20501;-72
2021/06/07 14:14:29;;;;;;;26.67;24.20;;;;;;;;;;5049558;28;20416;-75
2021/06/07 14:16:55;;;;;;;29.70;27.20;;;;;;;;;;5056981;28;20826;-74
2021/06/07 14:19:21;;;;;;;32.47;29.47;;;;;;;;;;5069479;28;20466;-73
2021/06/07 14:24:38;;;;;;;30.17;27.37;;;;;;;;;;5049528;28;20407;-74